createdAt,value
2022-10-13T00:00:24.602Z,66.69
2022-10-13T00:01:24.665Z,54.34
2022-10-13T00:02:24.592Z,47.98
2022-10-13T00:03:24.607Z,51.28
2022-10-13T00:04:24.576Z,53.21
2022-10-13T00:05:24.555Z,64.19
2022-10-13T00:06:25.136Z,56.66
2022-10-13T00:07:24.553Z,48.23
2022-10-13T00:08:24.562Z,51.75
2022-10-13T00:09:24.533Z,60.16
2022-10-13T00:10:24.518Z,59.72
2022-10-13T00:11:24.512Z,57.01
2022-10-13T00:12:24.502Z,63.66
2022-10-13T00:13:24.517Z,66.31
2022-10-13T00:14:24.500Z,49.26
2022-10-13T00:15:24.479Z,62.47
2022-10-13T00:16:24.467Z,59.01
2022-10-13T00:17:24.462Z,54.66
2022-10-13T00:18:24.486Z,51.81
2022-10-13T00:19:24.443Z,68.25
2022-10-13T00:20:24.432Z,67.73
2022-10-13T00:21:24.441Z,52.09
2022-10-13T00:22:24.416Z,62.69
2022-10-13T00:23:24.451Z,42.89
2022-10-13T00:24:24.400Z,42.38
2022-10-13T00:25:24.391Z,63.70
2022-10-13T00:26:24.382Z,49.72
2022-10-13T00:27:24.373Z,40.63
2022-10-13T00:28:24.403Z,59.94
2022-10-13T00:29:24.435Z,49.40
2022-10-13T00:30:24.809Z,62.27
2022-10-13T00:31:24.593Z,65.18
2022-10-13T00:32:24.350Z,58.16
2022-10-13T00:33:24.330Z,58.43
2022-10-13T00:34:24.347Z,56.52
2022-10-13T00:35:24.313Z,59.83
2022-10-13T00:36:24.306Z,49.33
2022-10-13T00:37:24.293Z,41.84
2022-10-13T00:38:24.324Z,56.61
2022-10-13T00:39:24.283Z,56.28
2022-10-13T00:40:24.258Z,51.04
2022-10-13T00:41:25.263Z,53.62
2022-10-13T00:42:24.256Z,49.48
2022-10-13T00:43:24.272Z,64.14
2022-10-13T00:44:24.248Z,66.98
2022-10-13T00:45:24.226Z,42.40
2022-10-13T00:46:24.219Z,56.26
2022-10-13T00:47:24.221Z,47.07
2022-10-13T00:48:25.230Z,37.32
2022-10-13T00:49:24.192Z,57.40
2022-10-13T00:50:24.325Z,59.86
2022-10-13T00:51:24.174Z,47.52
2022-10-13T00:52:24.215Z,52.03
2022-10-13T00:53:24.207Z,48.91
2022-10-13T00:54:24.330Z,56.82
2022-10-13T00:55:24.188Z,49.33
2022-10-13T00:56:24.635Z,68.93
2022-10-13T00:57:24.125Z,41.32
2022-10-13T00:58:24.155Z,56.08
2022-10-13T00:59:24.108Z,51.61
2022-10-13T01:00:24.106Z,59.69
2022-10-13T01:01:24.278Z,50.46
2022-10-13T01:02:24.088Z,42.58
2022-10-13T01:03:24.104Z,50.48
2022-10-13T01:04:24.067Z,57.86
2022-10-13T01:05:24.056Z,44.09
2022-10-13T01:06:24.109Z,46.03
2022-10-13T01:07:24.043Z,56.04
2022-10-13T01:08:24.060Z,61.48
2022-10-13T01:09:24.373Z,55.47
2022-10-13T01:10:24.019Z,60.56
2022-10-13T01:11:24.359Z,49.96
2022-10-13T01:12:24.373Z,52.99
2022-10-13T01:13:24.029Z,56.79
2022-10-13T01:14:23.983Z,43.45
2022-10-13T01:15:24.057Z,57.61
2022-10-13T01:16:23.967Z,58.69
2022-10-13T01:17:23.967Z,54.23
2022-10-13T01:18:23.979Z,50.01
2022-10-13T01:19:23.944Z,48.21
2022-10-13T01:20:23.930Z,54.71
2022-10-13T01:21:23.922Z,52.70
2022-10-13T01:22:23.919Z,60.46
2022-10-13T01:23:23.969Z,61.39
2022-10-13T01:24:23.905Z,42.65
2022-10-13T01:25:23.886Z,52.76
2022-10-13T01:26:24.043Z,43.42
2022-10-13T01:27:23.873Z,49.81
2022-10-13T01:28:23.926Z,52.33
2022-10-13T01:29:23.860Z,70.96
2022-10-13T01:30:23.855Z,57.04
2022-10-13T01:31:23.844Z,50.97
2022-10-13T01:32:23.833Z,56.92
2022-10-13T01:33:23.819Z,56.35
2022-10-13T01:34:23.849Z,61.16
2022-10-13T01:35:23.893Z,52.19
2022-10-13T01:36:23.806Z,57.75
2022-10-13T01:37:23.792Z,57.33
2022-10-13T01:38:23.776Z,57.25
2022-10-13T01:39:23.800Z,52.11
2022-10-13T01:40:23.765Z,61.71
2022-10-13T01:41:23.762Z,47.69
2022-10-13T01:42:23.744Z,48.67
2022-10-13T01:43:23.739Z,60.27
2022-10-13T01:44:23.754Z,61.40
2022-10-13T01:45:23.778Z,49.51
2022-10-13T01:46:24.763Z,54.05
2022-10-13T01:47:23.703Z,48.94
2022-10-13T01:48:23.699Z,39.70
2022-10-13T01:49:23.722Z,47.31
2022-10-13T01:50:23.688Z,64.97
2022-10-13T01:51:23.745Z,57.62
2022-10-13T01:52:23.664Z,58.17
2022-10-13T01:53:23.657Z,42.71
2022-10-13T01:54:23.835Z,58.30
2022-10-13T01:55:23.634Z,52.27
2022-10-13T01:56:23.632Z,53.74
2022-10-13T01:57:23.618Z,45.61
2022-10-13T01:58:24.613Z,51.51
2022-10-13T01:59:23.639Z,61.68
2022-10-13T02:00:23.618Z,63.51
2022-10-13T02:01:23.842Z,53.35
2022-10-13T02:02:23.729Z,38.45
2022-10-13T02:03:23.585Z,65.60
2022-10-13T02:04:23.592Z,54.07
2022-10-13T02:05:23.561Z,62.04
2022-10-13T02:06:23.548Z,67.34
2022-10-13T02:07:23.548Z,47.47
2022-10-13T02:08:24.531Z,49.26
2022-10-13T02:09:23.552Z,39.42
2022-10-13T02:10:23.568Z,44.89
2022-10-13T02:11:23.660Z,52.31
2022-10-13T02:12:23.500Z,39.89
2022-10-13T02:13:23.489Z,64.56
2022-10-13T02:14:23.511Z,46.56
2022-10-13T02:15:23.468Z,60.21
2022-10-13T02:16:23.461Z,62.43
2022-10-13T02:17:23.452Z,55.22
2022-10-13T02:18:23.445Z,67.36
2022-10-13T02:19:23.481Z,54.71
2022-10-13T02:20:23.422Z,50.36
2022-10-13T02:21:23.419Z,55.41
2022-10-13T02:22:23.411Z,52.76
2022-10-13T02:23:23.419Z,55.77
2022-10-13T02:24:23.441Z,55.72
2022-10-13T02:25:23.388Z,57.59
2022-10-13T02:26:23.411Z,52.08
2022-10-13T02:27:23.370Z,62.60
2022-10-13T02:28:23.409Z,60.78
2022-10-13T02:29:23.338Z,57.79
2022-10-13T02:30:23.361Z,62.47
2022-10-13T02:31:23.621Z,58.09
2022-10-13T02:32:23.323Z,47.83
2022-10-13T02:33:23.318Z,50.21
2022-10-13T02:34:23.347Z,64.01
2022-10-13T02:35:23.298Z,58.10
2022-10-13T02:36:23.380Z,67.14
2022-10-13T02:37:23.279Z,56.08
2022-10-13T02:38:23.267Z,41.36
2022-10-13T02:39:23.277Z,55.14
2022-10-13T02:40:23.303Z,53.57
2022-10-13T02:41:23.246Z,44.97
2022-10-13T02:42:23.576Z,61.66
2022-10-13T02:43:23.226Z,66.89
2022-10-13T02:44:23.266Z,56.87
2022-10-13T02:45:23.218Z,57.77
2022-10-13T02:46:23.204Z,53.74
2022-10-13T02:47:23.198Z,43.84
2022-10-13T02:48:23.183Z,53.05
2022-10-13T02:49:24.360Z,68.28
2022-10-13T02:50:23.206Z,61.68
2022-10-13T02:51:23.183Z,62.60
2022-10-13T02:52:23.218Z,52.96
2022-10-13T02:53:23.162Z,56.95
2022-10-13T02:54:23.168Z,59.05
2022-10-13T02:55:23.251Z,60.38
2022-10-13T02:56:23.131Z,62.96
2022-10-13T02:57:23.117Z,53.71
2022-10-13T02:58:23.112Z,54.29
2022-10-13T02:59:23.156Z,63.47
2022-10-13T03:00:23.098Z,62.42
2022-10-13T03:01:23.083Z,51.29
2022-10-13T03:02:23.487Z,68.20
2022-10-13T03:03:23.070Z,52.37
2022-10-13T03:04:23.095Z,67.20
2022-10-13T03:05:23.087Z,57.25
2022-10-13T03:06:23.044Z,53.27
2022-10-13T03:07:23.028Z,69.72
2022-10-13T03:08:23.029Z,64.47
2022-10-13T03:09:23.048Z,69.03
2022-10-13T03:10:23.010Z,60.25
2022-10-13T03:11:23.004Z,66.61
2022-10-13T03:12:23.199Z,66.22
2022-10-13T03:13:22.990Z,68.32
2022-10-13T03:14:23.007Z,67.51
2022-10-13T03:15:22.973Z,51.65
2022-10-13T03:16:22.963Z,64.12
2022-10-13T03:17:22.947Z,63.82
2022-10-13T03:18:22.943Z,65.18
2022-10-13T03:19:22.972Z,69.47
2022-10-13T03:20:22.932Z,68.23
2022-10-13T03:21:22.920Z,66.66
2022-10-13T03:22:23.320Z,68.17
2022-10-13T03:23:22.917Z,63.03
2022-10-13T03:24:22.928Z,62.81
2022-10-13T03:25:22.888Z,64.91
2022-10-13T03:26:22.878Z,69.35
2022-10-13T03:27:22.976Z,69.11
2022-10-13T03:28:22.910Z,63.84
2022-10-13T03:29:22.889Z,61.52
2022-10-13T03:30:22.915Z,69.21
2022-10-13T03:31:22.842Z,65.99
2022-10-13T03:32:23.149Z,68.44
2022-10-13T03:33:22.815Z,67.40
2022-10-13T03:34:22.811Z,70.09
2022-10-13T03:35:22.830Z,71.55
2022-10-13T03:36:22.794Z,65.93
2022-10-13T03:37:22.920Z,65.34
2022-10-13T03:38:22.783Z,54.93
2022-10-13T03:39:22.772Z,64.51
2022-10-13T03:40:22.791Z,71.80
2022-10-13T03:41:22.756Z,71.55
2022-10-13T03:42:22.903Z,66.80
2022-10-13T03:43:22.751Z,66.93
2022-10-13T03:44:22.727Z,65.96
2022-10-13T03:45:22.744Z,64.86
2022-10-13T03:46:22.698Z,65.30
2022-10-13T03:47:23.697Z,65.72
2022-10-13T03:48:22.692Z,66.74
2022-10-13T03:49:22.697Z,64.92
2022-10-13T03:50:22.707Z,56.75
2022-10-13T03:51:22.658Z,68.37
2022-10-13T03:52:22.848Z,62.69
2022-10-13T03:53:22.660Z,64.37
2022-10-13T03:54:22.640Z,64.03
2022-10-13T03:55:22.666Z,66.75
2022-10-13T03:56:22.743Z,64.05
2022-10-13T03:57:22.624Z,66.58
2022-10-13T03:58:22.607Z,63.80
2022-10-13T03:59:22.755Z,62.79
2022-10-13T04:00:22.698Z,70.56
2022-10-13T04:01:22.630Z,63.58
2022-10-13T04:02:22.678Z,71.04
2022-10-13T04:03:22.562Z,72.51
2022-10-13T04:04:22.554Z,67.09
2022-10-13T04:05:22.573Z,68.92
2022-10-13T04:06:22.542Z,62.70
2022-10-13T04:07:22.541Z,69.16
2022-10-13T04:08:22.524Z,58.55
2022-10-13T04:09:22.520Z,67.07
2022-10-13T04:10:22.541Z,71.65
2022-10-13T04:11:22.499Z,71.30
2022-10-13T04:12:22.829Z,57.62
2022-10-13T04:13:22.482Z,66.76
2022-10-13T04:14:22.472Z,64.97
2022-10-13T04:15:22.490Z,73.17
2022-10-13T04:16:22.460Z,65.95
2022-10-13T04:17:22.450Z,65.40
2022-10-13T04:18:22.437Z,68.34
2022-10-13T04:19:22.442Z,67.95
2022-10-13T04:20:22.453Z,67.08
2022-10-13T04:21:22.416Z,68.49
2022-10-13T04:22:22.791Z,69.72
2022-10-13T04:23:22.395Z,69.66
2022-10-13T04:24:22.389Z,58.82
2022-10-13T04:25:22.405Z,70.85
2022-10-13T04:26:22.375Z,71.72
2022-10-13T04:27:22.360Z,65.42
2022-10-13T04:28:22.390Z,66.03
2022-10-13T04:29:22.347Z,65.45
2022-10-13T04:30:22.368Z,71.78
2022-10-13T04:31:22.335Z,68.51
2022-10-13T04:32:22.517Z,68.31
2022-10-13T04:33:22.321Z,64.57
2022-10-13T04:34:22.357Z,69.32
2022-10-13T04:35:22.327Z,69.92
2022-10-13T04:36:22.301Z,62.76
2022-10-13T04:37:22.339Z,72.55
2022-10-13T04:38:22.274Z,66.30
2022-10-13T04:39:22.267Z,71.00
2022-10-13T04:40:22.286Z,70.59
2022-10-13T04:41:22.434Z,70.64
2022-10-13T04:42:22.726Z,69.40
2022-10-13T04:43:22.231Z,70.89
2022-10-13T04:44:22.220Z,71.52
2022-10-13T04:45:22.240Z,67.97
2022-10-13T04:46:22.207Z,65.14
2022-10-13T04:47:22.190Z,70.13
2022-10-13T04:48:22.179Z,69.14
2022-10-13T04:49:22.276Z,67.16
2022-10-13T04:50:22.199Z,70.37
2022-10-13T04:51:22.167Z,67.52
2022-10-13T04:52:22.483Z,72.96
2022-10-13T04:53:22.149Z,70.97
2022-10-13T04:54:22.147Z,64.57
2022-10-13T04:55:22.158Z,71.16
2022-10-13T04:56:22.119Z,71.20
2022-10-13T04:57:22.117Z,70.30
2022-10-13T04:58:22.108Z,63.91
2022-10-13T04:59:22.097Z,69.45
2022-10-13T05:00:22.236Z,72.50
2022-10-13T05:01:22.583Z,70.21
2022-10-13T05:02:23.081Z,67.41
2022-10-13T05:03:22.066Z,69.33
2022-10-13T05:04:22.066Z,72.37
2022-10-13T05:05:22.076Z,70.90
2022-10-13T05:06:22.039Z,71.30
2022-10-13T05:07:22.035Z,68.84
2022-10-13T05:08:22.046Z,70.19
2022-10-13T05:09:22.047Z,71.57
2022-10-13T05:10:22.034Z,67.73
2022-10-13T05:11:22.006Z,71.42
2022-10-13T05:12:22.245Z,70.10
2022-10-13T05:13:21.981Z,70.26
2022-10-13T05:14:21.966Z,69.60
2022-10-13T05:15:22.010Z,69.96
2022-10-13T05:16:22.021Z,68.88
2022-10-13T05:17:21.959Z,68.39
2022-10-13T05:18:21.941Z,68.43
2022-10-13T05:19:21.926Z,71.48
2022-10-13T05:20:22.957Z,71.33
2022-10-13T05:21:21.917Z,70.93
2022-10-13T05:22:22.210Z,72.13
2022-10-13T05:23:21.899Z,73.10
2022-10-13T05:24:21.891Z,69.45
2022-10-13T05:25:21.918Z,69.61
2022-10-13T05:26:21.879Z,65.75
2022-10-13T05:27:21.863Z,72.66
2022-10-13T05:28:21.919Z,71.21
2022-10-13T05:29:21.849Z,70.65
2022-10-13T05:30:21.874Z,67.84
2022-10-13T05:31:21.828Z,70.44
2022-10-13T05:32:22.213Z,69.07
2022-10-13T05:33:21.820Z,71.37
2022-10-13T05:34:21.803Z,72.07
2022-10-13T05:35:21.797Z,70.63
2022-10-13T05:36:21.819Z,68.91
2022-10-13T05:37:21.782Z,72.32
2022-10-13T05:38:25.932Z,71.03
2022-10-13T05:39:22.765Z,65.99
2022-10-13T05:40:21.746Z,69.81
2022-10-13T05:41:22.785Z,69.08
2022-10-13T05:42:22.131Z,67.18
2022-10-13T05:43:21.734Z,71.46
2022-10-13T05:44:21.736Z,71.66
2022-10-13T05:45:21.747Z,69.95
2022-10-13T05:46:21.741Z,68.37
2022-10-13T05:47:21.697Z,66.80
2022-10-13T05:48:21.697Z,70.73
2022-10-13T05:49:21.683Z,67.21
2022-10-13T05:50:21.676Z,69.86
2022-10-13T05:51:21.712Z,63.53
2022-10-13T05:52:22.073Z,63.17
2022-10-13T05:53:21.690Z,69.46
2022-10-13T05:54:21.650Z,66.68
2022-10-13T05:55:21.643Z,65.85
2022-10-13T05:56:21.672Z,66.92
2022-10-13T05:57:21.620Z,68.55
2022-10-13T05:58:21.615Z,69.28
2022-10-13T05:59:26.772Z,71.71
2022-10-13T06:00:23.594Z,68.72
2022-10-13T06:01:21.614Z,71.01
2022-10-13T06:02:22.007Z,71.76
2022-10-13T06:03:21.567Z,72.79
2022-10-13T06:04:21.563Z,63.97
2022-10-13T06:05:21.552Z,70.81
2022-10-13T06:06:21.572Z,64.59
2022-10-13T06:07:21.545Z,69.58
2022-10-13T06:08:21.535Z,72.65
2022-10-13T06:09:21.520Z,70.96
2022-10-13T06:10:21.522Z,67.92
2022-10-13T06:11:21.528Z,71.83
2022-10-13T06:12:21.810Z,71.88
2022-10-13T06:13:21.501Z,71.28
2022-10-13T06:14:21.478Z,71.23
2022-10-13T06:15:25.696Z,67.18
2022-10-13T06:16:23.485Z,66.87
2022-10-13T06:17:21.452Z,71.22
2022-10-13T06:18:21.451Z,68.89
2022-10-13T06:19:21.443Z,67.95
2022-10-13T06:20:21.434Z,67.18
2022-10-13T06:21:21.452Z,69.90
2022-10-13T06:22:21.906Z,68.75
2022-10-13T06:23:21.409Z,69.01
2022-10-13T06:24:21.396Z,70.09
2022-10-13T06:25:21.384Z,67.50
2022-10-13T06:26:21.505Z,66.89
2022-10-13T06:27:21.373Z,66.51
2022-10-13T06:28:21.409Z,65.08
2022-10-13T06:29:21.353Z,71.38
2022-10-13T06:30:21.357Z,68.07
2022-10-13T06:31:21.361Z,69.57
2022-10-13T06:32:21.726Z,68.10
2022-10-13T06:33:21.321Z,68.32
2022-10-13T06:34:21.313Z,66.79
2022-10-13T06:35:21.304Z,70.54
2022-10-13T06:36:21.329Z,70.23
2022-10-13T06:37:26.958Z,65.59
2022-10-13T06:38:23.277Z,69.87
2022-10-13T06:39:21.279Z,71.88
2022-10-13T06:40:21.255Z,70.77
2022-10-13T06:41:21.348Z,68.97
2022-10-13T06:42:21.575Z,62.77
2022-10-13T06:43:21.246Z,66.30
2022-10-13T06:44:21.232Z,71.41
2022-10-13T06:45:21.221Z,70.99
2022-10-13T06:46:21.256Z,66.75
2022-10-13T06:47:21.214Z,67.32
2022-10-13T06:48:21.201Z,66.39
2022-10-13T06:49:21.199Z,60.58
2022-10-13T06:50:21.180Z,66.33
2022-10-13T06:51:21.169Z,69.07
2022-10-13T06:52:21.566Z,64.20
2022-10-13T06:53:21.155Z,73.62
2022-10-13T06:54:21.147Z,63.35
2022-10-13T06:55:21.142Z,67.77
2022-10-13T06:56:21.178Z,70.68
2022-10-13T06:57:21.153Z,71.81
2022-10-13T06:58:21.135Z,70.67
2022-10-13T06:59:21.126Z,68.78
2022-10-13T07:00:21.152Z,71.94
2022-10-13T07:01:21.089Z,63.63
2022-10-13T07:02:21.450Z,70.33
2022-10-13T07:03:21.079Z,71.49
2022-10-13T07:04:21.153Z,70.49
2022-10-13T07:05:21.064Z,64.81
2022-10-13T07:06:21.032Z,67.73
2022-10-13T07:07:22.067Z,70.22
2022-10-13T07:08:21.043Z,68.13
2022-10-13T07:09:21.015Z,61.80
2022-10-13T07:10:21.008Z,67.84
2022-10-13T07:11:20.996Z,63.55
2022-10-13T07:12:21.352Z,68.09
2022-10-13T07:14:20.967Z,70.47
2022-10-13T07:15:20.960Z,68.37
2022-10-13T07:16:20.953Z,68.57
2022-10-13T07:17:21.193Z,67.53
2022-10-13T07:18:20.938Z,71.21
2022-10-13T07:19:20.937Z,70.63
2022-10-13T07:20:20.926Z,66.77
2022-10-13T07:21:20.919Z,68.38
2022-10-13T07:22:20.933Z,65.04
2022-10-13T07:23:20.904Z,68.72
2022-10-13T07:24:20.902Z,66.71
2022-10-13T07:25:20.900Z,66.48
2022-10-13T07:26:20.874Z,67.23
2022-10-13T07:27:21.107Z,70.04
2022-10-13T07:28:20.869Z,66.49
2022-10-13T07:29:20.858Z,69.27
2022-10-13T07:30:20.870Z,66.86
2022-10-13T07:31:20.831Z,69.18
2022-10-13T07:32:20.844Z,65.69
2022-10-13T07:33:20.821Z,63.84
2022-10-13T07:34:20.805Z,64.78
2022-10-13T07:35:20.793Z,65.36
2022-10-13T07:36:20.794Z,66.65
2022-10-13T07:37:21.130Z,63.13
2022-10-13T07:38:20.765Z,69.40
2022-10-13T07:39:21.756Z,72.96
2022-10-13T07:40:20.806Z,71.09
2022-10-13T07:41:20.744Z,69.34
2022-10-13T07:42:20.771Z,69.11
2022-10-13T07:43:20.740Z,72.31
2022-10-13T07:44:20.733Z,63.80
2022-10-13T07:45:20.713Z,67.83
2022-10-13T07:46:20.760Z,67.24
2022-10-13T07:47:21.085Z,69.53
2022-10-13T07:49:20.675Z,63.24
2022-10-13T07:50:20.745Z,65.11
2022-10-13T07:51:20.665Z,71.78
2022-10-13T07:52:21.014Z,66.99
2022-10-13T07:53:20.643Z,66.14
2022-10-13T07:54:23.801Z,67.65
2022-10-13T07:55:22.628Z,71.50
2022-10-13T07:56:20.621Z,70.12
2022-10-13T07:57:20.643Z,66.81
2022-10-13T07:58:20.640Z,62.42
2022-10-13T07:59:20.631Z,70.66
2022-10-13T08:00:20.608Z,73.20
2022-10-13T08:01:20.613Z,72.25
2022-10-13T08:02:21.071Z,69.08
2022-10-13T08:03:20.567Z,65.54
2022-10-13T08:04:20.558Z,68.99
2022-10-13T08:05:20.550Z,66.67
2022-10-13T08:06:20.545Z,59.57
2022-10-13T08:07:21.023Z,66.33
2022-10-13T08:08:20.538Z,71.63
2022-10-13T08:09:20.520Z,71.70
2022-10-13T08:10:20.530Z,67.48
2022-10-13T08:11:20.508Z,69.16
2022-10-13T08:12:20.889Z,68.83
2022-10-13T08:13:20.487Z,71.72
2022-10-13T08:14:20.485Z,67.06
2022-10-13T08:15:20.466Z,69.82
2022-10-13T08:16:20.455Z,70.64
2022-10-13T08:17:20.770Z,70.18
2022-10-13T08:18:20.448Z,66.91
2022-10-13T08:19:20.443Z,66.63
2022-10-13T08:20:20.424Z,67.70
2022-10-13T08:22:27.278Z,67.37
2022-10-13T08:23:21.411Z,67.96
2022-10-13T08:24:20.396Z,66.24
2022-10-13T08:25:20.387Z,67.77
2022-10-13T08:26:20.383Z,69.16
2022-10-13T08:27:20.769Z,70.52
2022-10-13T08:28:20.408Z,67.59
2022-10-13T08:29:23.000Z,65.43
2022-10-13T08:30:21.553Z,65.00
2022-10-13T08:31:20.489Z,69.85
2022-10-13T08:32:20.701Z,70.15
2022-10-13T08:33:20.320Z,64.70
2022-10-13T08:34:20.307Z,70.06
2022-10-13T08:35:20.296Z,68.63
2022-10-13T08:36:20.293Z,67.03
2022-10-13T08:37:20.308Z,69.50
2022-10-13T08:38:20.277Z,69.69
2022-10-13T08:39:20.264Z,61.36
2022-10-13T08:40:20.263Z,69.84
2022-10-13T08:41:21.252Z,65.88
2022-10-13T08:42:20.612Z,63.47
2022-10-13T08:43:20.239Z,67.82
2022-10-13T08:45:40.332Z,71.85
2022-10-13T08:46:22.230Z,66.58
2022-10-13T08:47:20.235Z,66.08
2022-10-13T08:48:20.191Z,71.96
2022-10-13T08:49:20.185Z,72.69
2022-10-13T08:50:20.167Z,69.54
2022-10-13T08:51:20.173Z,61.66
2022-10-13T08:52:20.532Z,70.83
2022-10-13T08:53:20.151Z,70.08
2022-10-13T08:54:20.143Z,70.56
2022-10-13T08:55:20.137Z,66.78
2022-10-13T08:56:20.122Z,65.75
2022-10-13T08:57:20.324Z,69.12
2022-10-13T08:58:20.107Z,67.95
2022-10-13T08:59:20.104Z,70.82
2022-10-13T09:00:20.093Z,63.90
2022-10-13T09:01:20.135Z,70.10
2022-10-13T09:02:20.100Z,69.26
2022-10-13T09:03:20.062Z,63.73
2022-10-13T09:04:20.052Z,64.53
2022-10-13T09:05:20.055Z,72.72
2022-10-13T09:06:20.048Z,68.44
2022-10-13T09:07:20.300Z,62.47
2022-10-13T09:08:20.053Z,68.16
2022-10-13T09:09:20.013Z,59.74
2022-10-13T09:10:20.032Z,73.28
2022-10-13T09:11:19.999Z,68.52
2022-10-13T09:12:20.154Z,70.29
2022-10-13T09:13:20.015Z,68.93
2022-10-13T09:14:19.973Z,70.65
2022-10-13T09:15:19.964Z,68.47
2022-10-13T09:16:19.952Z,65.41
2022-10-13T09:17:20.010Z,67.34
2022-10-13T09:18:19.972Z,67.21
2022-10-13T09:19:19.961Z,62.13
2022-10-13T09:20:19.921Z,70.03
2022-10-13T09:21:19.922Z,63.61
2022-10-13T09:22:20.182Z,67.78
2022-10-13T09:23:19.931Z,66.58
2022-10-13T09:24:19.885Z,64.63
2022-10-13T09:25:19.886Z,68.79
2022-10-13T09:26:19.878Z,64.64
2022-10-13T09:27:19.865Z,70.55
2022-10-13T09:28:19.919Z,73.23
2022-10-13T09:29:19.846Z,69.39
2022-10-13T09:30:19.848Z,69.13
2022-10-13T09:31:19.829Z,70.26
2022-10-13T09:32:20.125Z,67.78
2022-10-13T09:33:19.859Z,67.84
2022-10-13T09:34:19.805Z,66.24
2022-10-13T09:35:19.814Z,71.73
2022-10-13T09:36:19.789Z,71.51
2022-10-13T09:37:19.782Z,67.68
2022-10-13T09:38:19.815Z,62.45
2022-10-13T09:39:19.752Z,71.73
2022-10-13T09:40:20.758Z,67.39
2022-10-13T09:41:19.779Z,71.96
2022-10-13T09:42:20.026Z,67.70
2022-10-13T09:43:19.759Z,63.41
2022-10-13T09:44:22.080Z,69.29
2022-10-13T09:45:19.715Z,60.16
2022-10-13T09:46:19.716Z,71.46
2022-10-13T09:47:19.700Z,66.31
2022-10-13T09:48:19.721Z,65.56
2022-10-13T09:49:19.695Z,70.09
2022-10-13T09:50:19.829Z,70.15
2022-10-13T09:51:19.678Z,70.76
2022-10-13T09:52:19.879Z,68.88
2022-10-13T09:53:19.687Z,70.53
2022-10-13T09:54:19.653Z,69.89
2022-10-13T09:55:19.650Z,63.49
2022-10-13T09:56:19.634Z,68.81
2022-10-13T09:57:19.650Z,67.30
2022-10-13T09:58:19.655Z,68.88
2022-10-13T09:59:19.605Z,69.78
2022-10-13T10:00:19.592Z,62.12
2022-10-13T10:01:19.601Z,64.67
2022-10-13T10:02:21.352Z,66.43
2022-10-13T10:03:19.597Z,71.78
2022-10-13T10:04:19.577Z,71.75
2022-10-13T10:05:19.557Z,70.22
2022-10-13T10:06:20.766Z,68.37
2022-10-13T10:07:19.755Z,71.68
2022-10-13T10:08:22.630Z,65.97
2022-10-13T10:09:20.555Z,66.61
2022-10-13T10:10:19.518Z,66.76
2022-10-13T10:11:19.512Z,69.25
2022-10-13T10:12:21.877Z,67.56
2022-10-13T10:13:19.485Z,67.96
2022-10-13T10:14:19.522Z,69.07
2022-10-13T10:15:19.474Z,70.37
2022-10-13T10:16:19.660Z,66.40
2022-10-13T10:17:19.663Z,67.43
2022-10-13T10:18:19.471Z,67.95
2022-10-13T10:19:19.430Z,69.35
2022-10-13T10:20:19.430Z,66.71
2022-10-13T10:21:19.421Z,64.41
2022-10-13T10:22:19.431Z,71.18
2022-10-13T10:23:19.422Z,69.32
2022-10-13T10:24:19.393Z,68.40
2022-10-13T10:25:19.389Z,67.66
2022-10-13T10:26:23.141Z,65.21
2022-10-13T10:28:20.466Z,69.89
2022-10-13T10:29:19.351Z,70.45
2022-10-13T10:30:19.340Z,66.14
2022-10-13T10:31:19.333Z,70.82
2022-10-13T10:32:19.652Z,69.67
2022-10-13T10:33:19.349Z,63.83
2022-10-13T10:34:19.310Z,69.33
2022-10-13T10:35:19.304Z,72.02
2022-10-13T10:36:19.297Z,70.29
2022-10-13T10:37:22.797Z,68.46
2022-10-13T10:38:20.310Z,64.20
2022-10-13T10:39:19.261Z,60.97
2022-10-13T10:40:19.258Z,73.19
2022-10-13T10:41:19.276Z,69.87
2022-10-13T10:42:19.518Z,66.65
2022-10-13T10:43:19.279Z,67.21
2022-10-13T10:44:19.222Z,69.22
2022-10-13T10:45:19.223Z,68.25
2022-10-13T10:46:19.209Z,71.53
2022-10-13T10:47:22.521Z,72.03
2022-10-13T10:48:19.191Z,66.58
2022-10-13T10:49:19.204Z,70.61
2022-10-13T10:50:19.168Z,63.31
2022-10-13T10:51:19.172Z,70.89
2022-10-13T10:52:19.144Z,69.28
2022-10-13T10:53:19.153Z,67.55
2022-10-13T10:54:19.211Z,71.22
2022-10-13T10:55:19.126Z,67.53
2022-10-13T10:56:19.117Z,62.59
2022-10-13T10:57:19.311Z,70.53
2022-10-13T10:58:19.132Z,66.68
2022-10-13T10:59:19.093Z,70.21
2022-10-13T11:00:19.122Z,69.97
2022-10-13T11:01:19.103Z,69.67
2022-10-13T11:02:19.365Z,68.30
2022-10-13T11:03:19.105Z,61.41
2022-10-13T11:04:19.047Z,65.61
2022-10-13T11:05:19.043Z,64.51
2022-10-13T11:06:19.039Z,67.56
2022-10-13T11:07:19.038Z,71.83
2022-10-13T11:08:19.081Z,68.28
2022-10-13T11:09:19.007Z,68.90
2022-10-13T11:10:18.996Z,67.43
2022-10-13T11:11:23.354Z,64.59
2022-10-13T11:12:20.434Z,70.08
2022-10-13T11:13:19.057Z,71.46
2022-10-13T11:14:18.966Z,67.31
2022-10-13T11:15:18.955Z,66.84
2022-10-13T11:16:18.946Z,66.88
2022-10-13T11:17:18.936Z,70.93
2022-10-13T11:18:21.942Z,72.22
2022-10-13T11:19:19.920Z,64.99
2022-10-13T11:20:18.905Z,72.90
2022-10-13T11:21:18.899Z,70.49
2022-10-13T11:22:19.245Z,70.05
2022-10-13T11:23:18.930Z,66.22
2022-10-13T11:24:18.889Z,67.72
2022-10-13T11:25:18.868Z,70.55
2022-10-13T11:26:18.857Z,69.78
2022-10-13T11:27:19.854Z,71.14
2022-10-13T11:28:18.925Z,65.92
2022-10-13T11:29:18.832Z,69.96
2022-10-13T11:30:18.884Z,67.97
2022-10-13T11:31:18.826Z,64.66
2022-10-13T11:32:19.185Z,70.48
2022-10-13T11:33:18.834Z,71.82
2022-10-13T11:34:18.799Z,67.46
2022-10-13T11:35:18.783Z,68.01
2022-10-13T11:36:18.779Z,71.41
2022-10-13T11:37:18.770Z,70.23
2022-10-13T11:38:18.979Z,67.81
2022-10-13T11:39:18.805Z,65.30
2022-10-13T11:40:18.744Z,69.65
2022-10-13T11:41:18.746Z,71.84
2022-10-13T11:42:19.105Z,70.92
2022-10-13T11:43:18.768Z,66.71
2022-10-13T11:44:18.750Z,68.30
2022-10-13T11:45:18.702Z,69.04
2022-10-13T11:46:18.700Z,71.09
2022-10-13T11:47:18.890Z,68.31
2022-10-13T11:48:18.707Z,67.30
2022-10-13T11:49:18.673Z,70.91
2022-10-13T11:50:18.663Z,67.38
2022-10-13T11:51:18.647Z,67.25
2022-10-13T11:52:19.112Z,70.46
2022-10-13T11:53:18.639Z,68.25
2022-10-13T11:54:18.656Z,70.88
2022-10-13T11:55:18.621Z,68.81
2022-10-13T11:56:18.606Z,71.99
2022-10-13T11:57:18.602Z,68.65
2022-10-13T11:58:18.598Z,61.40
2022-10-13T11:59:18.611Z,63.64
2022-10-13T12:00:18.583Z,69.56
2022-10-13T12:01:18.566Z,67.93
2022-10-13T12:02:19.418Z,65.41
2022-10-13T12:03:19.588Z,64.93
2022-10-13T12:04:18.569Z,65.14
2022-10-13T12:05:18.532Z,69.58
2022-10-13T12:06:18.525Z,70.18
2022-10-13T12:07:18.518Z,68.06
2022-10-13T12:08:18.508Z,65.85
2022-10-13T12:09:18.534Z,67.55
2022-10-13T12:10:18.490Z,69.56
2022-10-13T12:11:18.485Z,69.35
2022-10-13T12:12:18.958Z,66.22
2022-10-13T12:13:18.483Z,70.07
2022-10-13T12:14:18.491Z,69.67
2022-10-13T12:15:18.464Z,69.63
2022-10-13T12:16:18.459Z,70.55
2022-10-13T12:17:23.194Z,66.29
2022-10-13T12:18:20.425Z,65.90
2022-10-13T12:19:19.303Z,67.21
2022-10-13T12:20:18.409Z,70.76
2022-10-13T12:21:18.403Z,72.64
2022-10-13T12:22:18.408Z,68.10
2022-10-13T12:23:18.396Z,70.49
2022-10-13T12:24:18.407Z,69.40
2022-10-13T12:25:18.377Z,69.33
2022-10-13T12:26:18.358Z,70.08
2022-10-13T12:27:18.672Z,70.70
2022-10-13T12:28:18.381Z,69.16
2022-10-13T12:29:18.373Z,65.46
2022-10-13T12:30:18.332Z,68.80
2022-10-13T12:31:18.331Z,67.38
2022-10-13T12:32:18.317Z,69.67
2022-10-13T12:33:19.311Z,70.69
2022-10-13T12:34:18.333Z,69.23
2022-10-13T12:35:18.292Z,70.35
2022-10-13T12:36:18.281Z,69.11
2022-10-13T12:37:18.576Z,69.26
2022-10-13T12:38:18.261Z,67.00
2022-10-13T12:39:18.285Z,73.10
2022-10-13T12:40:18.245Z,69.83
2022-10-13T12:41:19.287Z,63.92
2022-10-13T12:42:18.232Z,65.91
2022-10-13T12:43:18.229Z,67.05
2022-10-13T12:44:18.246Z,70.70
2022-10-13T12:45:18.213Z,72.61
2022-10-13T12:46:18.200Z,65.81
2022-10-13T12:47:18.320Z,69.80
2022-10-13T12:48:18.183Z,70.41
2022-10-13T12:49:18.215Z,67.74
2022-10-13T12:50:18.191Z,70.01
2022-10-13T12:51:18.155Z,66.18
2022-10-13T12:52:18.403Z,70.24
2022-10-13T12:53:18.138Z,71.93
2022-10-13T12:54:18.157Z,68.44
2022-10-13T12:55:18.134Z,64.11
2022-10-13T12:56:18.113Z,68.15
2022-10-13T12:57:18.102Z,67.42